Time;durP1;ratioP1;P1;durP2;ratioP2;P2;SDS_P1;SDS_P2;PMS_P1;PMS_P2;Temp;Humidity;BMP_temperature;BMP_pressure;BME280_temperature;BME280_humidity;BME280_pressure;Samples;Min_cycle;Max_cycle;Signal;HPM_P1;HPM_P2
2023/03/19 00:00:07;;;;;;;4.72;0.77;;;12.60;91.50;;;;;;4963806;28;20037;-82
2023/03/19 00:02:33;;;;;;;1.75;0.70;;;12.40;92.00;;;;;;4995727;28;20029;-80
2023/03/19 00:04:59;;;;;;;1.80;0.60;;;12.30;92.30;;;;;;4995503;28;20033;-81
2023/03/19 00:07:25;;;;;;;1.73;0.52;;;12.30;92.90;;;;;;4995209;28;20049;-81
2023/03/19 00:09:50;;;;;;;2.07;0.70;;;12.10;93.00;;;;;;4995794;28;20049;-81
2023/03/19 00:12:16;;;;;;;1.85;0.45;;;12.10;93.60;;;;;;4979448;28;20113;-81
2023/03/19 00:14:42;;;;;;;1.70;0.43;;;12.00;94.20;;;;;;4979554;28;20030;-81
2023/03/19 00:17:08;;;;;;;2.17;0.63;;;12.00;94.70;;;;;;5013170;28;20041;-80
2023/03/19 00:19:34;;;;;;;1.85;0.50;;;11.90;94.40;;;;;;4995508;28;20072;-82
2023/03/19 00:21:59;;;;;;;2.72;0.60;;;11.90;95.00;;;;;;4979060;28;20474;-81
2023/03/19 00:24:25;;;;;;;2.03;0.47;;;11.90;95.10;;;;;;4995568;28;20033;-81
2023/03/19 00:26:51;;;;;;;1.53;0.40;;;11.80;95.20;;;;;;4979276;28;20386;-81
2023/03/19 00:29:16;;;;;;;1.65;0.55;;;11.80;95.50;;;;;;4995603;28;20034;-82
2023/03/19 00:31:42;;;;;;;2.33;0.60;;;11.80;95.50;;;;;;4979144;28;20071;-81
2023/03/19 00:34:08;;;;;;;1.30;0.70;;;11.80;95.70;;;;;;5012870;28;20093;-81
2023/03/19 00:36:34;;;;;;;1.85;0.60;;;11.90;96.60;;;;;;4963339;28;20030;-81
2023/03/19 00:39:00;;;;;;;1.40;0.57;;;11.80;96.60;;;;;;4995543;28;20064;-81
2023/03/19 00:41:27;;;;;;;1.63;0.70;;;11.80;96.80;;;;;;4995427;28;20033;-82
2023/03/19 00:43:54;;;;;;;2.03;0.53;;;11.80;97.00;;;;;;4979287;28;20026;-80
2023/03/19 00:46:20;;;;;;;1.95;0.57;;;11.80;97.20;;;;;;4998257;28;20050;-80
2023/03/19 00:48:46;;;;;;;2.33;0.65;;;11.80;97.20;;;;;;4983059;28;20034;-81
2023/03/19 00:51:12;;;;;;;2.03;0.80;;;11.90;97.20;;;;;;5016816;28;20374;-82
2023/03/19 00:53:40;;;;;;;1.95;0.70;;;11.90;97.50;;;;;;4998717;28;20026;-83
2023/03/19 00:56:07;;;;;;;2.15;0.73;;;11.90;97.40;;;;;;5016948;28;20451;-80
2023/03/19 00:58:34;;;;;;;2.33;0.70;;;11.80;97.50;;;;;;4999257;28;20097;-81
2023/03/19 01:01:00;;;;;;;1.65;0.80;;;11.80;97.60;;;;;;4998426;28;20026;-80
2023/03/19 01:03:26;;;;;;;3.25;0.80;;;11.90;97.70;;;;;;4998935;28;20026;-81
2023/03/19 01:05:52;;;;;;;2.97;0.75;;;11.80;97.90;;;;;;4998473;28;20611;-82
2023/03/19 01:08:18;;;;;;;2.67;0.90;;;11.80;97.90;;;;;;4982920;28;20030;-81
2023/03/19 01:10:45;;;;;;;1.55;0.68;;;11.80;98.00;;;;;;4982696;28;20054;-81
2023/03/19 01:13:11;;;;;;;2.90;0.73;;;11.80;98.00;;;;;;4998610;28;20018;-81
2023/03/19 01:15:38;;;;;;;2.38;0.73;;;11.80;98.30;;;;;;4998520;28;20026;-81
2023/03/19 01:18:04;;;;;;;1.90;0.70;;;11.80;98.60;;;;;;5016435;28;20030;-81
2023/03/19 01:20:30;;;;;;;2.08;0.60;;;11.80;98.50;;;;;;4998533;28;20025;-82
2023/03/19 01:22:56;;;;;;;2.97;0.82;;;11.80;98.80;;;;;;4982251;28;20026;-83
2023/03/19 01:25:22;;;;;;;2.47;0.75;;;11.70;98.70;;;;;;4966610;28;20033;-82
2023/03/19 01:27:47;;;;;;;2.88;0.90;;;11.80;98.90;;;;;;5015783;28;20034;-82
2023/03/19 01:30:14;;;;;;;2.33;0.70;;;11.70;99.10;;;;;;4998389;28;20437;-83
2023/03/19 01:32:39;;;;;;;3.13;0.85;;;11.70;99.40;;;;;;4979667;28;20026;-83
2023/03/19 01:35:06;;;;;;;3.10;0.68;;;11.70;99.60;;;;;;4994118;28;20030;-83
2023/03/19 01:37:32;;;;;;;1.60;0.77;;;11.70;99.70;;;;;;4977342;28;20030;-83
2023/03/19 01:39:58;;;;;;;2.28;0.90;;;11.60;99.70;;;;;;4977055;28;20068;-83
2023/03/19 01:42:24;;;;;;;1.50;0.60;;;11.60;99.70;;;;;;4962989;28;20117;-83
2023/03/19 01:44:50;;;;;;;2.05;1.00;;;11.60;99.90;;;;;;5002256;28;20073;-83
2023/03/19 01:47:25;;;;;;;4.32;1.35;;;11.60;99.90;;;;;;4997257;28;20496;-83
2023/03/19 01:49:55;;;;;;;3.90;0.90;;;11.60;99.90;;;;;;5015325;28;20056;-83
2023/03/19 01:52:24;;;;;;;2.67;1.00;;;11.50;99.90;;;;;;4981816;28;20040;-83
2023/03/19 01:54:52;;;;;;;3.17;1.00;;;11.50;99.90;;;;;;4998025;28;20030;-82
2023/03/19 01:57:18;;;;;;;3.83;1.30;;;11.50;99.90;;;;;;4997628;28;20026;-81
2023/03/19 01:59:56;;;;;;;3.22;1.30;;;11.50;99.90;;;;;;4997700;28;20124;-81
2023/03/19 02:02:30;;;;;;;3.47;1.27;;;11.50;99.90;;;;;;4997326;28;20044;-81
2023/03/19 02:05:10;;;;;;;3.67;1.13;;;11.50;99.90;;;;;;5015127;28;20113;-81
2023/03/19 02:07:40;;;;;;;4.30;1.23;;;11.40;99.90;;;;;;5015021;28;20033;-81
2023/03/19 02:10:09;;;;;;;3.27;1.27;;;11.40;99.90;;;;;;4997663;28;20034;-81
2023/03/19 02:12:35;;;;;;;2.78;1.20;;;11.40;99.90;;;;;;4997600;28;20577;-82
2023/03/19 02:15:00;;;;;;;2.63;1.20;;;11.40;99.90;;;;;;4997111;28;20225;-81
2023/03/19 02:17:28;;;;;;;3.43;1.13;;;11.40;99.90;;;;;;4997603;28;20213;-81
2023/03/19 02:20:00;;;;;;;4.70;1.10;;;11.40;99.90;;;;;;4981419;28;20038;-81
2023/03/19 02:22:28;;;;;;;3.07;1.20;;;11.40;99.90;;;;;;4997249;28;20038;-82
2023/03/19 02:25:03;;;;;;;4.57;1.30;;;11.40;99.90;;;;;;4997042;28;20030;-82
2023/03/19 02:27:28;;;;;;;5.28;1.52;;;11.50;99.90;;;;;;5014740;28;20034;-81
2023/03/19 02:29:54;;;;;;;3.57;1.10;;;11.40;99.90;;;;;;4997435;28;20573;-82
2023/03/19 02:32:20;;;;;;;4.68;1.35;;;11.40;99.90;;;;;;4964573;28;20109;-82
2023/03/19 02:34:47;;;;;;;4.17;1.40;;;11.40;99.90;;;;;;4997277;28;20528;-82
2023/03/19 02:37:24;;;;;;;2.50;1.03;;;11.40;99.90;;;;;;4997332;28;20435;-82
2023/03/19 02:40:10;;;;;;;3.22;1.20;;;11.40;99.90;;;;;;4997482;28;20124;-83
2023/03/19 02:42:35;;;;;;;2.90;1.10;;;11.40;99.90;;;;;;5015081;28;20030;-82
2023/03/19 02:45:01;;;;;;;3.47;1.70;;;11.40;99.90;;;;;;4996819;28;20052;-82
2023/03/19 02:47:27;;;;;;;4.87;1.90;;;11.40;99.90;;;;;;4980786;28;20385;-83
2023/03/19 02:49:53;;;;;;;3.53;1.25;;;11.50;99.90;;;;;;4980513;28;20478;-82
2023/03/19 02:52:18;;;;;;;2.40;1.07;;;11.40;99.90;;;;;;4997281;28;20105;-82
2023/03/19 02:54:45;;;;;;;3.60;1.70;;;11.50;99.90;;;;;;4996905;28;20613;-82
2023/03/19 02:57:12;;;;;;;3.97;1.60;;;11.40;99.90;;;;;;4980824;28;20470;-83
2023/03/19 02:59:38;;;;;;;4.75;1.50;;;11.40;99.90;;;;;;5014159;28;20114;-82
2023/03/19 03:02:04;;;;;;;3.20;1.37;;;11.40;99.90;;;;;;4980069;28;20034;-82
2023/03/19 03:04:31;;;;;;;2.90;1.20;;;11.40;99.90;;;;;;4964202;28;20034;-82
2023/03/19 03:06:57;;;;;;;2.72;1.25;;;11.40;99.90;;;;;;4996628;28;20056;-81
2023/03/19 03:09:23;;;;;;;5.07;1.70;;;11.40;99.90;;;;;;4996348;28;20026;-82
2023/03/19 03:11:49;;;;;;;3.33;1.48;;;11.50;99.90;;;;;;4996922;28;20037;-80
2023/03/19 03:14:17;;;;;;;3.27;1.20;;;11.50;99.90;;;;;;5014184;28;20030;-82
2023/03/19 03:16:44;;;;;;;4.07;1.65;;;11.50;99.90;;;;;;4980070;28;20448;-82
2023/03/19 03:19:10;;;;;;;4.10;1.50;;;11.50;99.90;;;;;;4996567;28;20153;-81
2023/03/19 03:21:36;;;;;;;5.15;1.55;;;11.50;99.90;;;;;;5013672;28;20037;-81
2023/03/19 03:24:01;;;;;;;4.22;1.60;;;11.50;99.90;;;;;;4996484;28;20076;-81
2023/03/19 03:26:27;;;;;;;3.72;1.63;;;11.50;99.90;;;;;;4996386;28;20041;-81
2023/03/19 03:28:53;;;;;;;4.03;1.45;;;11.50;99.90;;;;;;4980142;28;20033;-82
2023/03/19 03:31:19;;;;;;;4.23;1.50;;;11.50;99.90;;;;;;4995644;28;20482;-81
2023/03/19 03:33:45;;;;;;;5.00;1.90;;;11.50;99.90;;;;;;4996340;28;20033;-82
2023/03/19 03:36:11;;;;;;;4.63;2.27;;;11.50;99.90;;;;;;4996053;28;20017;-81
2023/03/19 03:38:37;;;;;;;5.33;2.77;;;11.50;99.90;;;;;;4980052;28;20025;-80
2023/03/19 03:41:03;;;;;;;3.78;1.92;;;11.50;99.90;;;;;;4996282;28;20034;-81
2023/03/19 03:43:29;;;;;;;5.50;2.17;;;11.50;99.90;;;;;;4995803;28;20037;-81
2023/03/19 03:45:55;;;;;;;4.10;1.90;;;11.50;99.90;;;;;;4979553;28;20058;-81
2023/03/19 03:48:21;;;;;;;4.82;2.40;;;11.50;99.90;;;;;;4979248;28;20034;-81
2023/03/19 03:50:47;;;;;;;5.85;2.70;;;11.50;99.90;;;;;;4996052;28;20025;-81
2023/03/19 03:53:14;;;;;;;5.38;2.38;;;11.50;99.90;;;;;;4979800;28;20141;-81
2023/03/19 03:55:40;;;;;;;6.15;2.90;;;11.50;99.90;;;;;;4979904;28;20049;-80
2023/03/19 03:58:06;;;;;;;6.82;2.95;;;11.50;99.90;;;;;;4995998;28;20482;-81
2023/03/19 04:00:31;;;;;;;4.82;2.38;;;11.50;99.90;;;;;;4994886;28;20030;-81
2023/03/19 04:02:58;;;;;;;5.80;2.45;;;11.40;99.90;;;;;;4995911;28;20032;-81
2023/03/19 04:05:23;;;;;;;6.57;2.85;;;11.50;99.90;;;;;;4979540;28;20029;-81
2023/03/19 04:07:49;;;;;;;6.97;3.65;;;11.40;99.90;;;;;;4995724;28;20157;-81
2023/03/19 04:10:15;;;;;;;5.10;3.00;;;11.40;99.90;;;;;;5013194;28;20037;-82
2023/03/19 04:12:40;;;;;;;5.10;2.80;;;11.40;99.90;;;;;;4979262;28;20030;-82
2023/03/19 04:15:09;;;;;;;5.55;3.05;;;11.40;99.90;;;;;;4978905;28;20068;-82
2023/03/19 04:17:35;;;;;;;5.37;3.00;;;11.30;99.90;;;;;;5013168;28;20026;-81
2023/03/19 04:20:03;;;;;;;4.78;3.13;;;11.30;99.90;;;;;;4998510;28;20120;-82
2023/03/19 04:22:30;;;;;;;5.65;3.38;;;11.30;99.90;;;;;;5017039;28;20478;-82
2023/03/19 04:24:56;;;;;;;5.57;3.23;;;11.30;99.90;;;;;;4999647;28;20030;-82
2023/03/19 04:27:21;;;;;;;6.32;3.63;;;11.30;99.90;;;;;;4983327;28;20091;-81
2023/03/19 04:29:47;;;;;;;6.67;3.93;;;11.20;99.90;;;;;;5016647;28;20056;-82
2023/03/19 04:32:13;;;;;;;8.87;3.93;;;11.10;99.90;;;;;;4982860;28;20117;-82
2023/03/19 04:34:38;;;;;;;8.20;4.10;;;11.10;99.90;;;;;;4999760;28;20116;-82
2023/03/19 04:37:05;;;;;;;7.63;4.22;;;11.10;99.90;;;;;;4999289;28;20436;-81
2023/03/19 04:39:30;;;;;;;7.93;3.90;;;11.00;99.90;;;;;;4999308;28;20030;-81
2023/03/19 04:41:56;;;;;;;8.37;4.60;;;11.00;99.90;;;;;;4983223;28;20037;-81
2023/03/19 04:44:22;;;;;;;9.07;4.43;;;10.90;99.90;;;;;;4982874;28;20481;-81
2023/03/19 04:46:48;;;;;;;7.80;3.97;;;10.90;99.90;;;;;;4999016;28;20116;-81
2023/03/19 04:49:14;;;;;;;6.77;4.27;;;10.90;99.90;;;;;;4998894;28;20033;-81
2023/03/19 04:51:40;;;;;;;8.27;3.83;;;11.00;99.90;;;;;;4982735;28;20030;-81
2023/03/19 04:54:07;;;;;;;8.13;4.60;;;11.00;99.90;;;;;;5016574;28;20022;-81
2023/03/19 04:56:33;;;;;;;7.53;4.83;;;11.00;99.90;;;;;;4999355;28;20541;-81
2023/03/19 04:58:58;;;;;;;10.73;4.85;;;11.00;99.90;;;;;;4998806;28;20125;-81
2023/03/19 05:01:24;;;;;;;7.93;5.30;;;11.00;99.90;;;;;;4982390;28;20034;-80
2023/03/19 05:03:50;;;;;;;8.07;5.07;;;11.00;99.90;;;;;;4999263;28;20033;-79
2023/03/19 05:06:16;;;;;;;9.43;5.73;;;11.00;99.90;;;;;;4999096;28;20041;-79
2023/03/19 05:08:42;;;;;;;10.23;6.10;;;11.00;99.90;;;;;;4966844;28;20034;-80
2023/03/19 05:11:07;;;;;;;11.80;6.07;;;11.00;99.90;;;;;;4998872;28;20034;-81
2023/03/19 05:13:33;;;;;;;10.57;6.10;;;11.00;99.90;;;;;;4999184;28;20462;-81
2023/03/19 05:15:59;;;;;;;11.05;6.53;;;11.00;99.90;;;;;;4982138;28;20034;-82
2023/03/19 05:18:25;;;;;;;12.50;6.50;;;11.00;99.90;;;;;;5016199;28;20088;-81
2023/03/19 05:20:50;;;;;;;9.40;5.87;;;11.00;99.90;;;;;;4998658;28;20026;-81
2023/03/19 05:23:16;;;;;;;11.13;6.53;;;11.00;99.90;;;;;;4982088;28;20058;-82
2023/03/19 05:25:42;;;;;;;10.23;5.67;;;11.00;99.90;;;;;;4998404;28;20029;-82
2023/03/19 05:28:08;;;;;;;11.33;6.57;;;11.10;99.90;;;;;;4982287;28;20137;-81
2023/03/19 05:30:34;;;;;;;12.37;7.67;;;11.00;99.90;;;;;;4981414;28;20038;-81
2023/03/19 05:33:01;;;;;;;11.98;7.47;;;11.00;99.90;;;;;;5015925;28;20120;-81
2023/03/19 05:35:28;;;;;;;10.30;6.90;;;11.10;99.90;;;;;;4998587;28;20433;-82
2023/03/19 05:37:54;;;;;;;14.97;9.60;;;11.10;99.90;;;;;;4998231;28;20089;-82
2023/03/19 05:40:22;;;;;;;13.40;8.27;;;11.10;99.90;;;;;;4997457;28;20033;-81
2023/03/19 05:42:49;;;;;;;14.60;9.77;;;11.10;99.90;;;;;;4998424;28;20033;-81
2023/03/19 05:45:16;;;;;;;14.93;9.32;;;11.10;99.90;;;;;;4997668;28;20054;-82
2023/03/19 05:47:42;;;;;;;15.73;10.57;;;11.10;99.90;;;;;;4998149;28;20046;-82
2023/03/19 05:50:09;;;;;;;20.40;12.57;;;11.10;99.90;;;;;;5015439;28;20367;-82
2023/03/19 05:52:35;;;;;;;15.27;10.53;;;11.10;99.90;;;;;;4981515;28;20034;-82
2023/03/19 05:55:01;;;;;;;15.30;10.80;;;11.20;99.90;;;;;;4997774;28;20101;-81
2023/03/19 05:57:26;;;;;;;16.37;11.10;;;11.10;99.90;;;;;;4997604;28;20134;-81
2023/03/19 05:59:52;;;;;;;17.13;11.13;;;11.10;99.90;;;;;;4997116;28;20033;-80
2023/03/19 06:02:18;;;;;;;15.97;10.57;;;11.10;99.90;;;;;;4981563;28;20026;-80
2023/03/19 06:04:43;;;;;;;17.20;11.20;;;11.10;99.90;;;;;;4997354;28;20030;-81
2023/03/19 06:07:09;;;;;;;18.13;11.47;;;11.10;99.90;;;;;;4981337;28;20088;-82
2023/03/19 06:09:35;;;;;;;14.97;10.23;;;11.10;99.90;;;;;;4997916;28;20034;-82
2023/03/19 06:12:00;;;;;;;20.38;12.48;;;11.10;99.90;;;;;;4981576;28;20428;-82
2023/03/19 06:14:26;;;;;;;19.07;11.83;;;11.10;99.90;;;;;;5014955;28;20461;-82
2023/03/19 06:16:52;;;;;;;17.27;12.43;;;11.10;99.90;;;;;;4997785;28;20026;-82
2023/03/19 06:19:17;;;;;;;19.67;12.77;;;11.10;99.90;;;;;;4981565;28;20478;-83
2023/03/19 06:21:43;;;;;;;18.75;11.20;;;11.10;99.90;;;;;;4981431;28;20375;-82
2023/03/19 06:24:09;;;;;;;18.35;12.48;;;11.10;99.90;;;;;;4997325;28;20371;-82
2023/03/19 06:26:36;;;;;;;18.52;11.65;;;11.10;99.90;;;;;;4980997;28;20037;-83
2023/03/19 06:29:02;;;;;;;19.60;12.80;;;11.10;99.90;;;;;;4981286;28;20049;-81
2023/03/19 06:31:28;;;;;;;18.57;12.40;;;11.20;99.90;;;;;;4997236;28;20030;-81
2023/03/19 06:33:54;;;;;;;19.83;13.07;;;11.20;99.90;;;;;;4997316;28;20474;-82
2023/03/19 06:36:20;;;;;;;19.27;12.33;;;11.20;99.90;;;;;;4997225;28;20602;-82
2023/03/19 06:38:45;;;;;;;18.48;12.23;;;11.20;99.90;;;;;;4997044;28;20092;-81
2023/03/19 06:41:11;;;;;;;18.20;12.27;;;11.20;99.90;;;;;;4997245;28;20141;-81
2023/03/19 06:43:40;;;;;;;19.77;12.67;;;11.30;99.90;;;;;;4996146;28;20030;-80
2023/03/19 06:46:06;;;;;;;19.30;13.67;;;11.30;99.90;;;;;;4980541;28;20077;-80
2023/03/19 06:48:33;;;;;;;22.90;15.57;;;11.30;99.90;;;;;;5014929;28;20077;-80
2023/03/19 06:50:58;;;;;;;20.07;13.27;;;11.30;99.90;;;;;;4997435;28;20034;-80
2023/03/19 06:53:24;;;;;;;19.17;13.27;;;11.30;99.90;;;;;;4997005;28;20045;-83
2023/03/19 06:55:50;;;;;;;17.13;12.32;;;11.30;99.90;;;;;;4996070;28;20100;-81
2023/03/19 06:58:16;;;;;;;19.38;12.48;;;11.40;99.90;;;;;;5013457;28;20034;-80
2023/03/19 07:00:42;;;;;;;19.02;12.32;;;11.40;99.90;;;;;;4994741;28;20467;-82
2023/03/19 07:03:09;;;;;;;17.90;12.15;;;11.40;99.90;;;;;;5003694;28;20037;-82
2023/03/19 07:05:35;;;;;;;16.98;11.27;;;11.50;99.90;;;;;;4995312;28;20022;-82
2023/03/19 07:08:01;;;;;;;17.08;10.90;;;11.50;99.90;;;;;;4980190;28;20045;-80
2023/03/19 07:10:26;;;;;;;16.20;10.38;;;11.50;99.90;;;;;;4987754;28;20038;-80
2023/03/19 07:12:52;;;;;;;12.80;9.68;;;11.60;99.90;;;;;;5000127;28;20049;-82
2023/03/19 07:15:20;;;;;;;14.95;9.70;;;11.60;99.90;;;;;;5011762;28;20018;-80
2023/03/19 07:17:46;;;;;;;17.33;10.02;;;11.60;99.90;;;;;;4974620;28;20054;-79
2023/03/19 07:20:13;;;;;;;13.45;8.43;;;11.70;99.90;;;;;;4994757;28;20457;-79
2023/03/19 07:22:39;;;;;;;15.48;9.02;;;11.70;99.90;;;;;;5006519;28;20174;-79
2023/03/19 07:25:05;;;;;;;12.15;8.57;;;11.70;99.90;;;;;;4978784;28;20034;-79
2023/03/19 07:27:31;;;;;;;11.40;7.18;;;11.70;99.90;;;;;;4995323;28;20049;-79
2023/03/19 07:29:56;;;;;;;11.20;6.60;;;11.80;99.90;;;;;;4994689;28;20026;-80
2023/03/19 07:32:22;;;;;;;10.90;6.93;;;11.70;99.90;;;;;;5012679;28;20109;-80
2023/03/19 07:34:48;;;;;;;12.05;7.40;;;11.80;99.90;;;;;;4988230;28;20034;-79
2023/03/19 07:37:14;;;;;;;10.93;7.25;;;11.70;99.90;;;;;;4994046;28;20144;-79
2023/03/19 07:39:40;;;;;;;14.68;7.57;;;11.70;99.90;;;;;;5013060;28;20028;-79
2023/03/19 07:42:06;;;;;;;13.02;8.48;;;11.80;99.90;;;;;;4960224;28;20398;-79
2023/03/19 07:44:32;;;;;;;16.45;9.20;;;11.70;99.90;;;;;;4985421;28;20125;-79
2023/03/19 07:46:58;;;;;;;15.27;9.48;;;11.70;99.90;;;;;;4979599;28;20108;-80
2023/03/19 07:49:24;;;;;;;14.57;10.13;;;11.70;99.90;;;;;;4996222;28;20049;-80
2023/03/19 07:51:50;;;;;;;14.07;10.10;;;11.70;99.90;;;;;;4980182;28;20057;-80
2023/03/19 07:54:15;;;;;;;14.43;9.57;;;11.70;99.90;;;;;;4995421;28;20459;-80
2023/03/19 07:56:41;;;;;;;13.05;8.77;;;11.70;99.90;;;;;;5013883;28;20489;-80
2023/03/19 07:59:07;;;;;;;12.98;7.93;;;11.80;99.90;;;;;;4979419;28;20026;-80
2023/03/19 08:01:33;;;;;;;12.13;7.95;;;11.80;99.90;;;;;;4979935;28;20014;-80
2023/03/19 08:03:58;;;;;;;15.00;8.23;;;11.90;99.90;;;;;;4978982;28;20497;-80
2023/03/19 08:06:25;;;;;;;14.63;8.55;;;11.90;99.90;;;;;;4995644;28;20096;-80
2023/03/19 08:08:51;;;;;;;14.82;9.77;;;11.90;99.90;;;;;;5012997;28;20116;-79
2023/03/19 08:11:16;;;;;;;17.00;9.63;;;12.00;99.90;;;;;;4995120;28;20018;-80
2023/03/19 08:13:42;;;;;;;16.95;10.23;;;12.00;99.90;;;;;;4979179;28;20046;-80
2023/03/19 08:16:08;;;;;;;12.60;8.73;;;12.00;99.90;;;;;;4995571;28;20364;-79
2023/03/19 08:18:35;;;;;;;13.75;9.70;;;12.10;99.90;;;;;;4979086;28;20025;-81
2023/03/19 08:21:00;;;;;;;16.15;10.52;;;12.20;99.90;;;;;;4979587;28;20463;-80
2023/03/19 08:23:26;;;;;;;18.52;9.93;;;12.20;99.90;;;;;;4995139;28;20030;-80
2023/03/19 08:25:53;;;;;;;16.48;10.55;;;12.20;99.90;;;;;;4995000;28;20022;-80
2023/03/19 08:28:19;;;;;;;14.05;9.82;;;12.20;99.90;;;;;;5012706;28;20037;-80
2023/03/19 08:30:45;;;;;;;17.65;10.82;;;12.20;99.90;;;;;;4978651;28;20026;-80
2023/03/19 08:33:10;;;;;;;15.70;10.55;;;12.20;99.90;;;;;;4994858;28;20041;-80
2023/03/19 08:35:36;;;;;;;18.08;9.52;;;12.30;99.90;;;;;;4978970;28;20072;-80
2023/03/19 08:38:02;;;;;;;15.82;8.85;;;12.40;99.90;;;;;;4994475;28;20022;-79
2023/03/19 08:40:28;;;;;;;13.45;8.77;;;12.40;99.90;;;;;;5012858;28;20030;-79
2023/03/19 08:42:54;;;;;;;14.30;8.35;;;12.50;99.90;;;;;;4994930;28;20060;-80
2023/03/19 08:45:20;;;;;;;17.08;9.55;;;12.60;99.90;;;;;;4975224;28;20038;-80
2023/03/19 08:47:47;;;;;;;15.98;9.13;;;12.60;99.90;;;;;;4993913;28;20046;-80
2023/03/19 08:50:13;;;;;;;14.13;7.53;;;12.60;99.90;;;;;;4976888;28;20033;-79
2023/03/19 08:52:39;;;;;;;15.60;9.32;;;12.60;99.90;;;;;;4977359;28;20037;-79
2023/03/19 08:55:06;;;;;;;13.88;8.95;;;12.60;99.90;;;;;;4993769;28;20106;-80
2023/03/19 08:57:33;;;;;;;17.88;9.60;;;12.70;99.90;;;;;;5011893;28;20161;-79
2023/03/19 08:59:59;;;;;;;18.83;11.63;;;12.80;99.90;;;;;;5012036;28;20061;-79
2023/03/19 09:02:25;;;;;;;18.42;12.60;;;12.80;99.90;;;;;;4976998;28;20165;-79
2023/03/19 09:04:50;;;;;;;16.88;11.90;;;12.80;99.90;;;;;;5011722;28;20033;-80
2023/03/19 09:07:16;;;;;;;16.15;10.98;;;12.90;99.90;;;;;;4997762;28;20047;-79
2023/03/19 09:09:43;;;;;;;16.48;12.55;;;12.80;99.90;;;;;;4998566;28;20041;-79
2023/03/19 09:12:15;;;;;;;18.27;11.98;;;12.90;99.90;;;;;;5016574;28;20038;-79
2023/03/19 09:14:42;;;;;;;18.00;12.70;;;13.00;99.90;;;;;;4982615;28;20022;-80
2023/03/19 09:17:08;;;;;;;21.20;13.82;;;13.00;99.90;;;;;;4982491;28;20389;-79
2023/03/19 09:19:34;;;;;;;18.42;13.57;;;13.10;99.90;;;;;;4982258;28;20080;-80
2023/03/19 09:22:00;;;;;;;25.02;14.88;;;13.10;99.90;;;;;;5016103;28;20088;-79
2023/03/19 09:24:26;;;;;;;20.88;14.80;;;13.10;99.90;;;;;;4998448;28;20038;-79
2023/03/19 09:26:52;;;;;;;18.20;14.00;;;13.10;99.80;;;;;;4982192;28;20046;-79
2023/03/19 09:29:18;;;;;;;20.20;14.98;;;13.10;99.50;;;;;;4982653;28;20041;-79
2023/03/19 09:31:43;;;;;;;20.45;15.18;;;13.00;99.50;;;;;;4998674;28;20041;-80
2023/03/19 09:34:09;;;;;;;18.13;14.15;;;13.10;99.50;;;;;;4998522;28;20394;-79
2023/03/19 09:36:35;;;;;;;20.65;14.63;;;13.30;99.60;;;;;;4981992;28;20508;-79
2023/03/19 09:39:03;;;;;;;18.90;13.00;;;13.40;99.40;;;;;;4998166;28;20033;-79
2023/03/19 09:41:40;;;;;;;19.25;13.82;;;13.50;98.80;;;;;;5015931;28;20033;-80
2023/03/19 09:44:28;;;;;;;19.77;14.85;;;13.50;97.90;;;;;;5015780;28;20121;-80
2023/03/19 09:47:26;;;;;;;18.52;13.93;;;13.50;97.80;;;;;;4997846;28;20517;-79
2023/03/19 09:50:00;;;;;;;18.52;13.63;;;13.60;97.60;;;;;;4998330;28;20065;-80
2023/03/19 09:52:28;;;;;;;18.13;13.05;;;13.60;97.10;;;;;;4997843;28;20116;-78
2023/03/19 09:54:59;;;;;;;17.55;13.43;;;13.60;97.00;;;;;;4978192;28;20029;-79
2023/03/19 09:57:28;;;;;;;18.63;13.02;;;13.70;96.70;;;;;;4995662;28;20045;-79
2023/03/19 09:59:55;;;;;;;15.55;10.95;;;13.80;96.60;;;;;;4978926;28;20486;-79
2023/03/19 10:02:56;;;;;;;18.35;13.05;;;13.90;96.70;;;;;;5001460;28;20434;-79
2023/03/19 10:05:40;;;;;;;17.80;12.77;;;14.10;96.70;;;;;;4971424;28;20042;-80
2023/03/19 10:08:25;;;;;;;17.98;13.38;;;14.40;96.70;;;;;;5015186;28;20037;-80
2023/03/19 10:11:32;;;;;;;19.25;13.27;;;14.70;96.20;;;;;;5015497;28;20038;-80
2023/03/19 10:14:13;;;;;;;14.90;11.65;;;15.00;95.50;;;;;;4997308;28;20038;-80
2023/03/19 10:16:42;;;;;;;13.80;11.55;;;15.40;95.20;;;;;;4997772;28;20033;-80
2023/03/19 10:19:11;;;;;;;16.05;10.80;;;15.80;95.30;;;;;;5014816;28;20597;-81
2023/03/19 10:21:48;;;;;;;13.90;10.02;;;16.30;94.30;;;;;;5015305;28;20470;-80
2023/03/19 10:24:37;;;;;;;15.93;9.88;;;16.80;93.80;;;;;;4997494;28;20026;-81
2023/03/19 10:27:20;;;;;;;13.30;9.48;;;17.30;92.70;;;;;;4997049;28;20136;-81
2023/03/19 10:29:46;;;;;;;9.90;8.23;;;17.80;91.90;;;;;;4997503;28;20386;-81
2023/03/19 10:32:37;;;;;;;11.95;8.48;;;18.00;91.00;;;;;;4980588;28;20285;-81
2023/03/19 10:35:16;;;;;;;12.80;8.45;;;18.20;89.40;;;;;;4996871;28;20441;-81
2023/03/19 10:37:42;;;;;;;13.38;8.80;;;18.60;86.00;;;;;;4997448;28;20493;-81
2023/03/19 10:40:20;;;;;;;13.63;8.88;;;19.00;84.20;;;;;;4997181;28;20060;-81
2023/03/19 10:42:51;;;;;;;15.70;11.75;;;19.30;81.30;;;;;;4996818;28;20022;-81
2023/03/19 10:45:30;;;;;;;13.82;9.60;;;19.40;78.90;;;;;;4997034;28;20504;-81
2023/03/19 10:47:57;;;;;;;11.75;8.07;;;19.80;79.60;;;;;;4997526;28;20133;-82
2023/03/19 10:50:33;;;;;;;9.98;5.68;;;20.40;77.60;;;;;;4996364;28;20026;-81
2023/03/19 10:53:06;;;;;;;13.98;7.32;;;20.90;75.50;;;;;;4999607;28;20105;-81
2023/03/19 10:55:32;;;;;;;9.63;6.15;;;21.50;74.30;;;;;;4996741;28;20058;-79
2023/03/19 10:58:25;;;;;;;9.85;6.28;;;22.10;73.20;;;;;;4981240;28;20068;-80
2023/03/19 11:01:09;;;;;;;9.97;7.07;;;22.60;70.40;;;;;;4987758;28;20136;-80
2023/03/19 11:03:56;;;;;;;11.45;7.18;;;22.70;67.30;;;;;;4996509;28;20029;-80
2023/03/19 11:06:34;;;;;;;12.48;6.78;;;22.80;65.90;;;;;;4996836;28;20053;-81
2023/03/19 11:09:01;;;;;;;9.88;6.55;;;23.20;66.20;;;;;;4997095;28;20025;-81
2023/03/19 11:11:45;;;;;;;8.57;6.00;;;23.70;65.30;;;;;;4996849;28;20057;-81
2023/03/19 11:14:16;;;;;;;8.40;5.93;;;24.30;63.30;;;;;;4996362;28;20096;-81
2023/03/19 11:16:56;;;;;;;8.20;5.88;;;24.90;62.70;;;;;;4996388;28;20474;-80
2023/03/19 11:19:25;;;;;;;10.05;6.43;;;25.50;60.50;;;;;;5013901;28;20160;-80
2023/03/19 11:22:09;;;;;;;8.68;6.20;;;26.00;60.40;;;;;;5014185;28;20021;-80
2023/03/19 11:24:40;;;;;;;10.23;5.72;;;26.20;57.50;;;;;;4996166;28;20417;-81
2023/03/19 11:27:08;;;;;;;8.38;5.63;;;26.50;57.80;;;;;;4996517;28;20042;-80
2023/03/19 11:29:39;;;;;;;8.57;5.32;;;26.80;56.20;;;;;;4979370;28;20018;-80
2023/03/19 11:32:25;;;;;;;7.85;5.80;;;26.70;54.60;;;;;;4995976;28;20030;-80
2023/03/19 11:34:55;;;;;;;9.88;6.75;;;26.30;53.40;;;;;;4982974;28;20038;-80
2023/03/19 11:37:30;;;;;;;15.65;8.07;;;25.50;52.20;;;;;;4996269;28;20045;-79
2023/03/19 11:40:11;;;;;;;11.65;7.90;;;24.70;52.60;;;;;;5013483;28;20356;-79
2023/03/19 11:42:39;;;;;;;12.20;8.90;;;23.90;53.00;;;;;;4995746;28;20847;-79
2023/03/19 11:45:24;;;;;;;15.15;9.73;;;23.20;53.80;;;;;;4996002;28;20065;-80
2023/03/19 11:48:18;;;;;;;13.43;8.98;;;22.50;55.00;;;;;;5013742;28;20481;-80
2023/03/19 11:51:00;;;;;;;16.38;9.98;;;21.80;56.00;;;;;;5013285;28;20026;-81
2023/03/19 11:53:52;;;;;;;18.85;12.63;;;21.40;56.80;;;;;;5013476;28;20065;-82
2023/03/19 11:56:18;;;;;;;23.17;15.38;;;21.00;57.70;;;;;;4996669;28;20069;-81
2023/03/19 11:59:22;;;;;;;26.92;16.35;;;20.50;59.00;;;;;;4995496;28;20056;-80
2023/03/19 12:02:13;;;;;;;22.30;14.63;;;19.90;60.00;;;;;;4983361;28;20037;-80
2023/03/19 12:05:10;;;;;;;21.92;15.50;;;19.40;61.40;;;;;;4995674;28;20241;-81
2023/03/19 12:08:04;;;;;;;24.85;15.30;;;19.00;62.90;;;;;;4960474;28;20050;-80
2023/03/19 12:10:35;;;;;;;26.08;15.70;;;18.60;63.80;;;;;;4995498;28;20064;-80
2023/03/19 12:13:10;;;;;;;25.73;16.35;;;18.20;64.70;;;;;;4995649;28;20033;-81
2023/03/19 12:15:57;;;;;;;27.83;15.35;;;17.90;65.60;;;;;;4995662;28;20034;-81
2023/03/19 12:18:44;;;;;;;23.83;14.38;;;17.80;66.40;;;;;;5012624;28;20029;-80
2023/03/19 12:21:34;;;;;;;22.52;14.43;;;17.80;67.00;;;;;;5013255;28;20026;-81
2023/03/19 12:24:18;;;;;;;19.85;11.98;;;17.90;67.40;;;;;;5012538;28;20022;-81
2023/03/19 12:27:38;;;;;;;25.20;15.20;;;18.30;68.10;;;;;;4991795;28;20037;-81
2023/03/19 12:30:22;;;;;;;19.95;12.35;;;18.80;67.30;;;;;;4992982;28;20022;-81
2023/03/19 12:33:26;;;;;;;21.67;11.20;;;19.50;67.00;;;;;;4994986;28;20057;-79
2023/03/19 12:35:55;;;;;;;15.57;9.77;;;20.40;65.20;;;;;;4953621;29;20074;-80
2023/03/19 12:38:56;;;;;;;14.73;9.02;;;21.20;64.00;;;;;;4951666;29;20397;-82
2023/03/19 12:41:27;;;;;;;17.15;9.85;;;21.80;62.40;;;;;;4924032;29;20090;-81
2023/03/19 12:44:27;;;;;;;14.93;9.20;;;22.20;60.00;;;;;;4978553;28;20038;-81
2023/03/19 12:47:04;;;;;;;14.57;8.52;;;22.30;58.60;;;;;;4997926;28;20049;-80
2023/03/19 12:49:45;;;;;;;18.05;9.65;;;22.40;58.50;;;;;;5016988;28;20014;-80